Time;durP1;ratioP1;P1;durP2;ratioP2;P2;SDS_P1;SDS_P2;PMS_P1;PMS_P2;Temp;Humidity;BMP_temperature;BMP_pressure;BME280_temperature;BME280_humidity;BME280_pressure;Samples;Min_cycle;Max_cycle;Signal;HPM_P1;HPM_P2
2022/07/29 00:02:25;;;;;;;6.18;4.72;;;;;;;15.43;80.61;99172.16;5049405;28;20052;-62
2022/07/29 00:04:51;;;;;;;6.70;3.92;;;;;;;15.40;80.05;99169.25;5050757;28;20119;-64
2022/07/29 00:07:17;;;;;;;6.72;3.28;;;;;;;15.37;80.35;99167.13;5050861;28;20195;-63
2022/07/29 00:09:42;;;;;;;5.03;3.40;;;;;;;15.33;80.59;99171.44;5050904;28;20442;-63
2022/07/29 00:12:08;;;;;;;7.40;4.10;;;;;;;15.28;80.48;99171.44;5049455;28;20048;-62
2022/07/29 00:14:34;;;;;;;8.27;3.72;;;;;;;15.27;80.48;99177.88;5050285;28;20398;-63
2022/07/29 00:17:00;;;;;;;7.93;4.03;;;;;;;15.22;80.52;99176.81;5050808;28;20041;-63
2022/07/29 00:19:26;;;;;;;4.63;3.85;;;;;;;15.16;80.61;99172.56;5049344;28;20041;-63
2022/07/29 00:21:51;;;;;;;8.30;4.00;;;;;;;15.14;81.00;99174.69;5050764;28;20049;-63
2022/07/29 00:24:17;;;;;;;8.40;6.13;;;;;;;15.11;80.85;99180.56;5049026;28;20041;-63
2022/07/29 00:26:43;;;;;;;7.07;4.07;;;;;;;15.07;80.90;99176.88;5050328;28;20120;-63
2022/07/29 00:29:08;;;;;;;5.53;3.05;;;;;;;15.05;80.95;99172.84;5051904;28;20040;-63
2022/07/29 00:31:34;;;;;;;4.60;2.95;;;;;;;15.03;80.50;99177.66;5052880;28;20140;-63
2022/07/29 00:33:59;;;;;;;5.25;3.22;;;;;;;14.97;81.09;99187.56;5054579;28;20041;-63
2022/07/29 00:36:25;;;;;;;8.05;2.90;;;;;;;14.95;81.28;99185.16;5052876;28;20045;-64
2022/07/29 00:38:51;;;;;;;5.68;2.70;;;;;;;14.90;81.58;99181.72;5054434;28;20429;-64
2022/07/29 00:41:18;;;;;;;4.88;2.90;;;;;;;14.89;81.79;99185.47;5053274;28;20174;-63
2022/07/29 00:43:44;;;;;;;4.43;2.90;;;;;;;14.84;81.87;99180.13;5054065;28;20128;-64
2022/07/29 00:46:10;;;;;;;7.22;3.05;;;;;;;14.82;82.19;99185.72;5052904;28;20048;-63
2022/07/29 00:48:35;;;;;;;5.18;3.30;;;;;;;14.80;82.40;99184.41;5054250;28;20044;-63
2022/07/29 00:51:03;;;;;;;9.20;5.00;;;;;;;14.76;82.91;99179.63;5054158;28;20033;-64
2022/07/29 00:53:30;;;;;;;5.40;3.22;;;;;;;14.72;82.49;99183.88;5053097;28;20045;-64
2022/07/29 00:55:56;;;;;;;12.40;3.47;;;;;;;14.70;82.81;99183.34;5054440;28;20613;-63
2022/07/29 00:58:22;;;;;;;4.07;3.10;;;;;;;14.68;82.56;99190.03;5054320;28;20041;-63
2022/07/29 01:00:48;;;;;;;6.30;4.00;;;;;;;14.64;82.99;99186.28;5054211;28;20083;-63
2022/07/29 01:03:14;;;;;;;5.32;3.13;;;;;;;14.61;83.20;99190.28;5054102;28;20089;-63
2022/07/29 01:05:40;;;;;;;5.50;3.50;;;;;;;14.57;83.17;99189.22;5054349;28;20383;-65
2022/07/29 01:08:06;;;;;;;6.35;3.33;;;;;;;14.53;82.97;99199.66;5052325;28;20045;-64
2022/07/29 01:10:33;;;;;;;3.92;2.90;;;;;;;14.50;83.09;99191.31;5068778;28;20045;-63
2022/07/29 01:12:59;;;;;;;6.95;3.17;;;;;;;14.48;83.07;99190.81;5052606;28;20457;-65
2022/07/29 01:15:25;;;;;;;6.70;3.03;;;;;;;14.47;83.74;99197.19;5053904;28;20501;-63
2022/07/29 01:18:21;;;;;;;5.55;3.00;;;;;;;14.44;83.55;99189.72;5053688;28;20080;-64
2022/07/29 01:21:14;;;;;;;3.40;2.75;;;;;;;14.39;84.05;99190.56;5052136;28;20043;-63
2022/07/29 01:23:46;;;;;;;4.43;3.13;;;;;;;14.38;84.40;99182.81;5053548;28;20056;-64
2022/07/29 01:26:39;;;;;;;7.05;3.35;;;;;;;14.36;83.97;99196.41;5053250;28;20061;-65
2022/07/29 01:29:07;;;;;;;4.57;3.17;;;;;;;14.36;84.06;99196.41;5053604;28;20049;-66
2022/07/29 01:31:54;;;;;;;6.72;2.95;;;;;;;14.35;84.52;99192.13;5051970;28;20045;-64
2022/07/29 01:34:47;;;;;;;8.13;3.35;;;;;;;14.34;84.77;99195.06;5052704;28;20044;-64
2022/07/29 01:37:55;;;;;;;8.80;3.70;;;;;;;14.31;84.43;99194.53;5053371;28;20056;-63
2022/07/29 01:40:25;;;;;;;9.32;3.40;;;;;;;14.30;84.71;99194.81;5040176;28;20061;-64
2022/07/29 01:42:55;;;;;;;;;;;;;;;14.29;84.73;99190.53;5047151;28;20418;-63
2022/07/29 01:45:34;;;;;;;6.50;3.42;;;;;;;14.26;84.52;99194.53;5051285;28;20309;-64
2022/07/29 01:48:06;;;;;;;6.82;3.58;;;;;;;14.25;84.60;99198.25;5052905;28;20480;-64
2022/07/29 01:50:35;;;;;;;6.30;3.28;;;;;;;14.22;84.93;99196.13;5051881;28;20064;-64
2022/07/29 01:53:03;;;;;;;7.32;3.13;;;;;;;14.20;85.00;99200.91;5053210;28;20103;-64
2022/07/29 01:55:32;;;;;;;5.05;3.00;;;;;;;14.22;85.07;99200.66;5057622;28;20041;-64
2022/07/29 01:57:59;;;;;;;6.75;3.33;;;;;;;14.22;85.12;99204.13;5031812;28;20106;-65
2022/07/29 02:00:26;;;;;;;5.90;3.03;;;;;;;14.23;85.17;99213.72;5041342;28;20044;-64
2022/07/29 02:02:53;;;;;;;4.63;2.75;;;;;;;14.29;84.64;99201.19;5052942;28;20128;-63
2022/07/29 02:05:21;;;;;;;4.20;3.03;;;;;;;14.46;84.02;99204.41;5050921;28;20079;-64
2022/07/29 02:07:47;;;;;;;5.18;2.95;;;;;;;14.66;83.55;99198.28;5051798;28;20128;-66
2022/07/29 02:10:14;;;;;;;4.13;2.83;;;;;;;14.98;82.45;99205.19;5051453;28;20115;-66
2022/07/29 02:12:42;;;;;;;4.82;2.65;;;;;;;15.47;80.13;99203.69;5052875;28;20045;-64
2022/07/29 02:15:30;;;;;;;6.00;2.30;;;;;;;16.07;77.30;99202.56;5051245;28;20053;-63
2022/07/29 02:18:04;;;;;;;6.68;2.67;;;;;;;16.50;75.67;99204.66;5051544;28;20051;-65
2022/07/29 02:20:30;;;;;;;5.40;2.60;;;;;;;16.91;73.60;99204.31;5052722;28;20041;-66
2022/07/29 02:22:59;;;;;;;4.13;2.55;;;;;;;17.39;71.46;99205.13;5051506;28;20102;-63
2022/07/29 02:25:26;;;;;;;3.75;2.40;;;;;;;17.84;69.49;99207.53;5050691;28;20106;-64
2022/07/29 02:27:52;;;;;;;7.72;2.60;;;;;;;18.26;67.85;99200.47;5050945;28;20132;-65
2022/07/29 02:30:19;;;;;;;2.83;1.90;;;;;;;18.69;66.89;99214.53;5050701;28;20037;-64
2022/07/29 02:32:46;;;;;;;4.22;1.92;;;;;;;19.04;65.26;99215.00;5067442;28;20102;-65
2022/07/29 02:35:13;;;;;;;4.93;2.60;;;;;;;19.28;63.66;99209.44;5050779;28;20037;-64
2022/07/29 02:37:39;;;;;;;4.05;1.90;;;;;;;19.58;63.17;99215.28;5050537;28;20462;-63
2022/07/29 02:40:08;;;;;;;4.88;2.05;;;;;;;19.92;61.93;99209.47;5050780;28;20140;-63
2022/07/29 02:42:35;;;;;;;4.50;1.83;;;;;;;20.21;61.05;99217.16;5050732;28;20041;-65
2022/07/29 02:45:01;;;;;;;8.82;2.65;;;;;;;20.41;59.99;99205.91;5050373;28;20083;-67
2022/07/29 02:47:39;;;;;;;14.23;3.00;;;;;;;20.63;58.59;99217.78;5051008;28;20048;-65
2022/07/29 02:50:13;;;;;;;10.77;2.17;;;;;;;20.83;58.19;99221.84;5045618;28;20395;-65
2022/07/29 02:52:44;;;;;;;3.83;1.80;;;;;;;21.05;57.37;99212.91;5030716;28;20049;-64
2022/07/29 02:55:16;;;;;;;2.72;1.85;;;;;;;21.22;56.95;99214.88;5021959;28;20048;-64
2022/07/29 02:57:44;;;;;;;3.85;2.25;;;;;;;21.30;55.91;99214.13;5051996;28;20048;-64
2022/07/29 03:00:11;;;;;;;5.93;1.95;;;;;;;21.57;55.91;99207.72;5050085;28;20040;-65
2022/07/29 03:02:40;;;;;;;3.90;2.03;;;;;;;21.73;55.01;99210.75;5050548;28;20049;-64
2022/07/29 03:05:08;;;;;;;4.30;2.25;;;;;;;21.86;54.77;99207.13;5033354;28;20044;-64
2022/07/29 03:07:34;;;;;;;4.00;2.17;;;;;;;21.99;53.93;99208.06;5033986;28;20048;-62
2022/07/29 03:10:01;;;;;;;3.92;2.10;;;;;;;22.12;53.83;99209.84;5050436;28;20044;-63
2022/07/29 03:12:28;;;;;;;5.75;2.25;;;;;;;22.15;53.46;99208.41;5033938;28;20480;-64
2022/07/29 03:14:55;;;;;;;6.35;2.13;;;;;;;22.21;52.79;99210.66;5051730;28;20064;-65
2022/07/29 03:17:21;;;;;;;9.50;2.75;;;;;;;22.29;53.21;99209.03;5050611;28;20254;-65
2022/07/29 03:19:47;;;;;;;5.10;2.40;;;;;;;22.47;51.93;99212.50;5051706;28;20114;-66
2022/07/29 03:22:13;;;;;;;4.35;2.50;;;;;;;22.49;51.67;99212.19;5051511;28;20478;-63
2022/07/29 03:24:39;;;;;;;2.60;2.30;;;;;;;22.40;51.94;99214.91;5049377;28;20504;-64
2022/07/29 03:27:05;;;;;;;4.28;2.20;;;;;;;22.54;51.65;99210.13;5049921;28;20049;-64
2022/07/29 03:29:31;;;;;;;2.53;1.90;;;;;;;22.51;51.63;99215.38;5051443;28;20044;-66
2022/07/29 03:31:57;;;;;;;2.88;2.20;;;;;;;22.63;51.03;99215.50;5051454;28;20061;-64
2022/07/29 03:34:23;;;;;;;5.43;2.20;;;;;;;22.66;50.79;99204.84;5051175;28;20497;-63
2022/07/29 03:36:49;;;;;;;5.25;2.22;;;;;;;22.77;51.01;99210.72;5050247;28;20049;-64
2022/07/29 03:39:18;;;;;;;4.75;2.45;;;;;;;22.86;50.69;99213.38;5049932;28;20052;-62
2022/07/29 03:41:46;;;;;;;6.05;2.40;;;;;;;22.88;50.74;99213.84;5050074;28;20419;-62
2022/07/29 03:44:12;;;;;;;4.57;2.20;;;;;;;22.95;50.66;99221.50;5049400;28;20141;-63
2022/07/29 03:46:39;;;;;;;6.20;3.58;;;;;;;23.01;50.29;99215.56;5049995;28;20095;-64
2022/07/29 03:49:05;;;;;;;6.15;2.80;;;;;;;23.01;50.34;99212.09;5049818;28;22724;-63
2022/07/29 03:51:30;;;;;;;6.30;2.30;;;;;;;23.23;49.62;99216.44;5049654;28;20220;-63
2022/07/29 03:53:57;;;;;;;2.70;2.15;;;;;;;23.08;50.28;99215.06;5050747;28;20053;-63
2022/07/29 03:56:23;;;;;;;8.93;4.60;;;;;;;23.03;50.52;99215.25;5049535;28;20095;-63
2022/07/29 03:58:51;;;;;;;4.43;2.97;;;;;;;23.04;50.15;99223.03;5049605;28;20508;-65
2022/07/29 04:01:18;;;;;;;7.05;2.53;;;;;;;23.00;50.65;99218.59;5049566;28;20060;-63
2022/07/29 04:03:48;;;;;;;4.60;2.28;;;;;;;23.03;50.63;99226.88;5051470;28;20106;-65
2022/07/29 04:06:14;;;;;;;3.50;2.00;;;;;;;23.07;50.61;99227.78;5054770;28;20052;-64
2022/07/29 04:08:39;;;;;;;7.68;2.20;;;;;;;23.09;50.23;99228.28;5055379;28;20045;-63
2022/07/29 04:11:05;;;;;;;2.72;1.83;;;;;;;23.03;49.92;99234.16;5053926;28;20454;-63
2022/07/29 04:13:32;;;;;;;4.60;2.85;;;;;;;23.06;49.98;99231.63;5055011;28;20269;-65
2022/07/29 04:15:57;;;;;;;5.85;2.08;;;;;;;22.78;50.88;99230.41;5054781;28;20398;-65
2022/07/29 04:18:23;;;;;;;5.22;2.00;;;;;;;22.94;50.64;99236.06;5054898;28;20041;-66
2022/07/29 04:20:49;;;;;;;3.85;2.05;;;;;;;23.02;49.95;99238.00;5055363;28;20431;-65
2022/07/29 04:23:14;;;;;;;4.55;2.20;;;;;;;23.09;49.44;99228.28;5054417;28;20053;-65
2022/07/29 04:25:41;;;;;;;3.42;2.10;;;;;;;22.89;50.21;99229.75;5055177;28;20037;-67
2022/07/29 04:28:07;;;;;;;2.30;1.98;;;;;;;22.85;51.04;99233.41;5053288;28;20399;-65
2022/07/29 04:30:34;;;;;;;5.78;2.40;;;;;;;22.93;50.25;99234.50;5055184;28;20078;-65
2022/07/29 04:33:01;;;;;;;3.95;1.90;;;;;;;23.16;50.19;99235.09;5054555;28;20044;-64
2022/07/29 04:35:27;;;;;;;5.38;1.90;;;;;;;23.09;49.65;99236.38;5053551;28;20410;-64
2022/07/29 04:37:53;;;;;;;5.82;2.00;;;;;;;23.21;50.15;99235.69;5053088;28;20755;-66
2022/07/29 04:40:19;;;;;;;7.38;2.15;;;;;;;23.43;49.61;99236.53;5053219;28;20087;-65
2022/07/29 04:42:44;;;;;;;3.80;1.80;;;;;;;23.45;48.92;99240.50;5054224;28;20182;-64
2022/07/29 04:45:10;;;;;;;2.53;2.28;;;;;;;23.55;48.77;99245.53;5052630;28;20044;-64
2022/07/29 04:47:35;;;;;;;2.28;1.70;;;;;;;23.61;48.79;99248.84;5048331;28;20449;-64
2022/07/29 04:50:02;;;;;;;3.65;1.85;;;;;;;23.58;48.48;99244.88;5054342;28;20144;-64
2022/07/29 04:52:28;;;;;;;2.33;1.70;;;;;;;23.72;48.71;99246.59;5053993;28;20494;-62
2022/07/29 04:54:54;;;;;;;2.33;1.85;;;;;;;23.64;48.61;99258.22;5054068;28;20048;-63
2022/07/29 04:57:19;;;;;;;5.30;1.95;;;;;;;23.73;48.53;99248.97;5045921;28;20049;-64
2022/07/29 04:59:45;;;;;;;4.10;1.98;;;;;;;23.60;48.58;99258.09;5069580;28;20557;-63
2022/07/29 05:02:11;;;;;;;2.03;1.60;;;;;;;23.69;48.67;99248.00;5054391;28;20054;-63
2022/07/29 05:04:37;;;;;;;5.55;1.80;;;;;;;23.30;49.20;99252.69;5052259;28;20041;-63
2022/07/29 05:07:02;;;;;;;3.25;1.83;;;;;;;23.05;49.58;99253.56;5054309;28;20045;-62
2022/07/29 05:09:28;;;;;;;2.83;2.15;;;;;;;22.91;50.63;99251.03;5053808;28;20087;-63
2022/07/29 05:11:54;;;;;;;3.97;1.92;;;;;;;22.81;50.46;99246.75;5054244;28;20044;-63
2022/07/29 05:14:19;;;;;;;3.33;1.80;;;;;;;22.71;50.49;99249.00;5053649;28;20037;-63
2022/07/29 05:16:45;;;;;;;4.78;1.90;;;;;;;22.66;50.98;99248.06;5054054;28;20052;-64
2022/07/29 05:19:11;;;;;;;3.65;2.00;;;;;;;22.60;50.90;99243.16;5053473;28;20041;-65
2022/07/29 05:21:37;;;;;;;2.78;1.80;;;;;;;22.52;51.03;99244.75;5053672;28;20414;-65
2022/07/29 05:24:03;;;;;;;2.92;2.10;;;;;;;22.34;51.29;99240.50;5052787;28;20037;-64
2022/07/29 05:26:28;;;;;;;4.28;2.13;;;;;;;22.34;51.44;99246.69;5053803;28;20442;-64
2022/07/29 05:28:54;;;;;;;2.97;1.88;;;;;;;22.22;51.82;99243.84;5052840;28;20040;-66
2022/07/29 05:31:20;;;;;;;3.15;1.70;;;;;;;22.04;52.15;99248.41;5053747;28;20068;-65
2022/07/29 05:33:46;;;;;;;3.97;1.80;;;;;;;21.90;51.82;99247.75;5053259;28;20080;-65
2022/07/29 05:36:11;;;;;;;2.33;1.85;;;;;;;21.68;52.20;99254.06;5053503;28;20131;-65
2022/07/29 05:38:37;;;;;;;6.15;1.63;;;;;;;21.60;53.50;99252.16;5052739;28;20068;-66
2022/07/29 05:41:04;;;;;;;3.72;1.95;;;;;;;21.55;53.14;99255.78;5053672;28;20045;-64
2022/07/29 05:43:30;;;;;;;4.85;1.95;;;;;;;21.44;53.35;99255.28;5051472;28;20464;-65
2022/07/29 05:45:56;;;;;;;4.60;2.00;;;;;;;21.40;53.35;99251.59;5034192;28;20102;-65
2022/07/29 05:48:22;;;;;;;2.60;1.70;;;;;;;21.28;53.27;99257.56;5050495;28;20041;-64
2022/07/29 05:50:48;;;;;;;3.97;2.70;;;;;;;21.32;53.37;99252.34;5068671;28;20127;-65
2022/07/29 05:53:13;;;;;;;3.10;2.00;;;;;;;21.28;52.83;99254.06;5053358;28;20045;-64
2022/07/29 05:55:39;;;;;;;3.97;1.85;;;;;;;21.22;53.08;99248.03;5053389;28;20033;-65
2022/07/29 05:58:05;;;;;;;1.95;1.58;;;;;;;21.22;52.57;99248.03;5052934;28;20056;-64
2022/07/29 06:00:30;;;;;;;3.40;1.70;;;;;;;21.21;52.26;99246.44;5053135;28;20514;-64
2022/07/29 06:02:56;;;;;;;3.97;2.47;;;;;;;21.23;52.53;99246.13;5052815;28;20040;-65
2022/07/29 06:05:23;;;;;;;4.25;1.80;;;;;;;21.19;52.51;99243.25;5068060;28;20036;-65
2022/07/29 06:07:48;;;;;;;4.60;1.70;;;;;;;21.13;51.84;99244.50;5052786;28;20059;-64
2022/07/29 06:10:14;;;;;;;5.60;2.10;;;;;;;21.12;52.50;99248.31;5052448;28;20036;-64
2022/07/29 06:12:40;;;;;;;3.72;1.83;;;;;;;21.09;52.90;99241.63;5044991;28;20053;-63
2022/07/29 06:15:06;;;;;;;4.60;2.20;;;;;;;21.15;51.84;99247.69;5049671;28;20044;-64
2022/07/29 06:17:32;;;;;;;3.03;1.90;;;;;;;21.19;52.20;99248.66;5049977;28;20048;-64
2022/07/29 06:19:57;;;;;;;2.60;1.80;;;;;;;21.23;52.06;99251.50;5049791;28;20124;-64
2022/07/29 06:22:23;;;;;;;1.90;1.63;;;;;;;21.20;51.63;99250.22;5046601;28;20535;-64
2022/07/29 06:24:49;;;;;;;2.20;1.80;;;;;;;21.33;50.95;99253.94;5048356;28;20519;-64
2022/07/29 06:27:16;;;;;;;2.70;2.33;;;;;;;21.47;51.01;99248.44;5046034;28;20048;-63
2022/07/29 06:29:42;;;;;;;1.70;1.60;;;;;;;21.61;50.71;99229.44;5047298;28;20037;-63
2022/07/29 06:32:08;;;;;;;4.28;1.65;;;;;;;21.65;51.01;99238.50;5048303;28;20057;-63
2022/07/29 06:34:35;;;;;;;6.95;2.33;;;;;;;21.59;50.54;99240.56;5046151;28;20540;-63
2022/07/29 06:37:09;;;;;;;6.22;1.95;;;;;;;21.72;49.62;99236.94;5042514;28;20071;-65
2022/07/29 06:39:37;;;;;;;4.65;1.90;;;;;;;21.60;49.35;99238.66;5047632;28;20140;-65
2022/07/29 06:42:04;;;;;;;2.70;1.77;;;;;;;21.60;48.91;99246.75;5046015;28;20040;-65
2022/07/29 06:44:31;;;;;;;3.17;1.73;;;;;;;21.74;50.01;99240.13;5064537;28;20103;-66
2022/07/29 06:46:57;;;;;;;6.30;2.00;;;;;;;21.76;49.06;99239.78;5030761;28;20166;-64
2022/07/29 06:49:24;;;;;;;2.08;1.45;;;;;;;21.66;48.86;99240.88;5046654;28;20037;-65
2022/07/29 06:51:49;;;;;;;3.22;1.60;;;;;;;21.67;48.55;99234.38;5047174;28;20057;-66
2022/07/29 06:54:15;;;;;;;2.72;1.45;;;;;;;21.62;48.28;99249.91;5050462;28;20052;-68
2022/07/29 06:56:41;;;;;;;3.08;1.98;;;;;;;21.62;48.97;99239.94;5050124;28;20123;-65
2022/07/29 06:59:09;;;;;;;4.45;2.45;;;;;;;21.70;49.65;99244.53;5049225;28;20041;-65
2022/07/29 07:01:42;;;;;;;4.18;2.83;;;;;;;21.78;49.27;99232.97;5048180;28;20226;-66
2022/07/29 07:04:09;;;;;;;3.40;1.95;;;;;;;21.65;48.07;99238.50;5047691;28;20044;-66
2022/07/29 07:06:34;;;;;;;1.50;1.40;;;;;;;21.69;48.14;99234.06;5061469;28;20051;-66
2022/07/29 07:09:01;;;;;;;6.43;2.10;;;;;;;21.62;49.61;99239.94;5049087;28;20029;-65
2022/07/29 07:11:27;;;;;;;4.20;2.20;;;;;;;21.66;49.35;99237.41;5046883;28;20532;-64
2022/07/29 07:13:53;;;;;;;4.07;1.80;;;;;;;21.77;48.85;99233.31;5049507;28;20036;-65
2022/07/29 07:16:18;;;;;;;2.42;1.88;;;;;;;21.92;47.99;99237.44;5045578;28;20048;-65
2022/07/29 07:18:45;;;;;;;7.97;2.10;;;;;;;22.12;48.44;99231.44;5047529;28;20036;-67
2022/07/29 07:21:11;;;;;;;2.55;1.60;;;;;;;22.31;46.92;99233.81;5036785;28;20045;-64
2022/07/29 07:23:37;;;;;;;7.25;2.35;;;;;;;22.46;47.54;99229.81;5047069;28;20039;-67
2022/07/29 07:26:03;;;;;;;8.23;1.98;;;;;;;22.57;46.17;99249.22;5048369;28;20052;-66
2022/07/29 07:28:30;;;;;;;3.78;1.38;;;;;;;22.44;45.44;99242.84;5049292;28;20049;-65
2022/07/29 07:30:58;;;;;;;2.55;1.73;;;;;;;22.28;45.71;99241.78;5017308;28;20029;-66
2022/07/29 07:33:24;;;;;;;2.47;1.50;;;;;;;21.90;46.44;99245.06;5050497;28;20048;-66
2022/07/29 07:35:50;;;;;;;1.63;1.15;;;;;;;21.69;46.76;99242.16;5051423;28;20045;-66
2022/07/29 07:38:15;;;;;;;5.00;1.40;;;;;;;21.60;47.82;99236.75;5049673;28;20464;-65
2022/07/29 07:40:41;;;;;;;3.45;1.50;;;;;;;21.40;48.81;99245.41;5066294;28;20482;-66
2022/07/29 07:43:07;;;;;;;4.10;1.60;;;;;;;21.56;49.05;99243.91;5050617;28;20049;-66
2022/07/29 07:45:32;;;;;;;4.55;1.70;;;;;;;21.64;47.98;99239.59;5050960;28;20114;-66
2022/07/29 07:47:58;;;;;;;5.45;1.67;;;;;;;21.95;47.49;99243.00;5051022;28;20151;-66
2022/07/29 07:50:24;;;;;;;5.20;2.05;;;;;;;22.18;47.70;99240.97;5050725;28;20094;-66
2022/07/29 07:52:57;;;;;;;3.47;1.98;;;;;;;22.60;47.93;99240.47;5050770;28;20140;-65
2022/07/29 07:55:23;;;;;;;6.30;1.80;;;;;;;23.00;46.21;99242.91;5050808;28;20068;-67
2022/07/29 07:57:49;;;;;;;7.45;2.35;;;;;;;23.31;45.23;99248.84;5050791;28;20128;-66
2022/07/29 08:00:15;;;;;;;6.85;1.77;;;;;;;23.55;45.44;99242.03;5050677;28;20127;-66
2022/07/29 08:02:42;;;;;;;5.43;1.70;;;;;;;23.48;44.95;99253.38;5049202;28;20460;-66
2022/07/29 08:05:09;;;;;;;7.72;1.70;;;;;;;23.64;44.85;99255.53;5050542;28;20044;-66
2022/07/29 08:07:34;;;;;;;3.40;1.60;;;;;;;23.76;43.28;99250.22;5050661;28;20048;-66
2022/07/29 08:10:00;;;;;;;3.03;1.52;;;;;;;23.76;43.17;99251.00;5050762;28;20045;-67
2022/07/29 08:12:26;;;;;;;5.13;1.98;;;;;;;23.82;42.93;99250.81;5050642;28;20048;-66
2022/07/29 08:14:52;;;;;;;4.93;2.03;;;;;;;23.58;42.91;99238.69;5049107;28;20037;-66
2022/07/29 08:17:18;;;;;;;4.55;1.48;;;;;;;23.52;42.20;99259.72;5050691;28;20077;-66
2022/07/29 08:19:43;;;;;;;2.60;1.40;;;;;;;23.50;42.02;99250.34;5050432;28;20033;-66
2022/07/29 08:22:09;;;;;;;3.53;1.77;;;;;;;23.66;43.15;99253.28;5049178;28;20048;-66
2022/07/29 08:24:44;;;;;;;2.67;1.80;;;;;;;23.76;42.77;99255.63;5050132;28;20033;-67
2022/07/29 08:27:10;;;;;;;3.95;1.40;;;;;;;23.83;40.16;99255.91;5050707;28;20045;-67
2022/07/29 08:29:36;;;;;;;1.95;1.20;;;;;;;23.83;40.00;99258.63;5050337;28;20091;-66
2022/07/29 08:32:02;;;;;;;1.38;1.25;;;;;;;23.90;38.07;99248.06;5048954;28;20087;-67
2022/07/29 08:34:28;;;;;;;1.48;1.10;;;;;;;23.83;38.23;99263.25;5065511;28;20041;-66
2022/07/29 08:36:55;;;;;;;2.88;1.30;;;;;;;23.54;38.39;99256.69;5049156;28;20044;-66
2022/07/29 08:39:22;;;;;;;1.88;1.25;;;;;;;23.54;39.31;99245.88;5048812;28;20063;-66
2022/07/29 08:41:48;;;;;;;5.78;1.58;;;;;;;23.61;39.28;99245.34;5032471;28;20565;-66
2022/07/29 08:44:16;;;;;;;3.13;1.30;;;;;;;23.65;39.65;99244.38;5050512;28;20037;-66
2022/07/29 08:46:43;;;;;;;1.73;1.10;;;;;;;23.84;39.19;99240.47;5050048;28;20418;-65
2022/07/29 08:49:09;;;;;;;6.68;2.35;;;;;;;24.19;39.04;99251.81;5050945;28;20393;-66
2022/07/29 08:51:36;;;;;;;1.60;1.00;;;;;;;24.24;37.13;99255.13;5054022;28;20052;-66
2022/07/29 08:54:02;;;;;;;4.00;1.58;;;;;;;23.98;38.29;99255.31;5053925;28;20429;-66
2022/07/29 08:56:29;;;;;;;2.17;1.20;;;;;;;23.95;38.34;99247.09;5053926;28;20136;-67
2022/07/29 08:58:54;;;;;;;4.57;1.83;;;;;;;23.72;39.83;99244.66;5052381;28;20041;-66
2022/07/29 09:01:25;;;;;;;3.53;1.27;;;;;;;23.56;40.05;99257.97;5052434;28;20346;-66
2022/07/29 09:03:55;;;;;;;2.53;1.30;;;;;;;23.45;40.76;99253.25;5052456;28;20049;-67
2022/07/29 09:06:21;;;;;;;3.30;1.40;;;;;;;23.43;41.65;99260.88;5053596;28;20049;-66
2022/07/29 09:08:47;;;;;;;3.00;1.80;;;;;;;23.33;41.46;99253.94;5053291;28;20102;-66
2022/07/29 09:11:13;;;;;;;1.65;1.23;;;;;;;23.40;40.68;99253.44;5053623;28;20345;-66
2022/07/29 09:13:39;;;;;;;2.58;1.30;;;;;;;23.50;42.07;99253.03;5053335;28;20106;-66
2022/07/29 09:16:05;;;;;;;5.45;1.40;;;;;;;23.71;40.99;99245.03;5052205;28;20045;-68
2022/07/29 09:18:35;;;;;;;1.83;1.10;;;;;;;23.99;41.02;99254.19;5052027;28;20546;-66
2022/07/29 09:24:11;;;;;;;4.00;1.42;;;;;;;24.22;39.77;99248.47;5053141;28;20095;-66
2022/07/29 09:26:44;;;;;;;4.18;1.20;;;;;;;24.17;39.70;99260.28;5053495;28;20049;-66
2022/07/29 09:29:24;;;;;;;1.58;1.20;;;;;;;24.07;40.21;99251.78;5053285;28;20049;-67
2022/07/29 09:31:52;;;;;;;3.13;1.20;;;;;;;23.97;38.85;99247.53;5053238;28;20041;-66
2022/07/29 09:34:26;;;;;;;2.35;1.33;;;;;;;23.83;39.03;99247.78;5053171;28;20505;-66
2022/07/29 09:36:53;;;;;;;2.95;1.30;;;;;;;23.84;38.29;99254.78;5051757;28;20041;-67
2022/07/29 09:39:36;;;;;;;1.63;1.20;;;;;;;23.95;38.78;99256.00;5052946;28;20053;-66
2022/07/29 09:42:04;;;;;;;1.88;1.20;;;;;;;23.90;39.03;99253.47;5053270;28;20422;-65
2022/07/29 09:44:48;;;;;;;3.00;1.10;;;;;;;23.88;38.36;99255.69;5051864;28;20036;-66
2022/07/29 09:47:14;;;;;;;3.15;1.40;;;;;;;23.85;38.40;99252.88;5051202;28;20045;-66
2022/07/29 09:49:58;;;;;;;3.40;1.23;;;;;;;23.89;38.78;99256.53;5051541;28;20048;-66
2022/07/29 09:52:26;;;;;;;5.00;1.38;;;;;;;23.90;39.67;99258.09;5034569;28;20148;-66
2022/07/29 09:54:53;;;;;;;2.88;1.50;;;;;;;24.08;38.88;99262.25;5051612;28;20349;-65
2022/07/29 09:57:26;;;;;;;4.38;1.48;;;;;;;24.15;39.57;99267.13;5052491;28;20520;-66
2022/07/29 10:00:13;;;;;;;2.92;1.52;;;;;;;24.13;38.54;99261.28;5051361;28;20052;-67
2022/07/29 10:02:40;;;;;;;1.48;1.30;;;;;;;24.10;38.85;99261.94;5051797;28;20426;-66
2022/07/29 10:05:26;;;;;;;7.00;1.70;;;;;;;24.06;38.75;99272.66;5051529;28;20075;-66
2022/07/29 10:07:55;;;;;;;4.10;1.30;;;;;;;24.01;38.38;99275.53;5052482;28;20058;-67
2022/07/29 10:10:24;;;;;;;1.80;1.30;;;;;;;24.08;39.26;99264.97;5052626;28;20569;-66
2022/07/29 10:12:51;;;;;;;2.42;1.02;;;;;;;24.22;38.93;99259.28;5052328;28;20107;-66
2022/07/29 10:15:18;;;;;;;1.80;1.10;;;;;;;24.24;38.57;99257.84;5034652;28;20053;-67
2022/07/29 10:17:45;;;;;;;2.92;1.25;;;;;;;24.11;39.52;99252.69;5052590;28;20045;-67
2022/07/29 10:20:11;;;;;;;7.07;1.30;;;;;;;24.03;39.68;99259.75;5052478;28;20047;-66
2022/07/29 10:22:37;;;;;;;5.20;1.20;;;;;;;24.06;40.06;99259.09;5050999;28;20127;-67
2022/07/29 10:25:02;;;;;;;2.35;1.52;;;;;;;24.08;38.97;99256.06;5052552;28;20041;-66
2022/07/29 10:27:30;;;;;;;3.80;1.20;;;;;;;23.97;39.42;99250.22;5066927;28;20049;-66
2022/07/29 10:29:56;;;;;;;1.77;1.45;;;;;;;23.83;39.46;99255.91;5050733;28;20049;-66
2022/07/29 10:32:34;;;;;;;3.55;1.60;;;;;;;23.60;39.99;99260.00;5050784;28;20044;-65
2022/07/29 10:35:03;;;;;;;2.22;1.20;;;;;;;23.38;40.06;99252.94;5032677;28;20452;-65
2022/07/29 10:38:06;;;;;;;1.63;1.25;;;;;;;23.04;39.82;99252.00;5051243;28;20051;-66
2022/07/29 10:41:27;;;;;;;3.65;1.20;;;;;;;23.05;39.57;99248.16;5051601;28;20490;-66
2022/07/29 10:44:20;;;;;;;2.67;1.30;;;;;;;23.11;42.83;99255.75;5054413;28;20403;-66
2022/07/29 10:46:47;;;;;;;11.15;2.55;;;;;;;23.45;40.99;99258.66;5050769;28;20045;-65
2022/07/29 10:49:17;;;;;;;4.03;1.58;;;;;;;23.65;42.57;99251.69;5043885;28;20075;-65
2022/07/29 10:52:01;;;;;;;7.47;1.85;;;;;;;23.89;41.92;99251.09;5030040;28;20048;-65
2022/07/29 10:54:55;;;;;;;4.40;1.48;;;;;;;24.08;40.76;99254.13;5047699;28;20067;-67
2022/07/29 10:57:30;;;;;;;4.35;1.35;;;;;;;24.24;40.49;99255.13;5030607;28;20458;-66
2022/07/29 11:00:07;;;;;;;3.17;1.23;;;;;;;24.44;39.88;99250.03;5051254;28;20036;-66
2022/07/29 11:02:33;;;;;;;2.80;1.50;;;;;;;24.57;39.47;99262.50;5048767;28;20107;-66
2022/07/29 11:04:59;;;;;;;3.50;1.60;;;;;;;24.74;40.45;99258.03;5048278;28;20037;-65
2022/07/29 11:07:26;;;;;;;2.35;1.33;;;;;;;24.94;39.73;99259.88;5048539;28;20136;-67
2022/07/29 11:10:13;;;;;;;3.33;1.35;;;;;;;25.26;38.88;99263.69;5049038;28;20058;-67
2022/07/29 11:12:46;;;;;;;2.00;1.30;;;;;;;25.39;39.09;99253.66;5030930;28;20530;-66
2022/07/29 11:15:21;;;;;;;1.20;1.10;;;;;;;25.53;37.93;99248.69;5030491;28;20096;-66
2022/07/29 11:18:00;;;;;;;2.92;1.30;;;;;;;25.50;36.84;99254.78;5049420;28;20045;-67
2022/07/29 11:20:45;;;;;;;1.35;1.25;;;;;;;25.25;36.72;99240.41;5031496;28;20127;-67
2022/07/29 11:23:39;;;;;;;3.58;1.60;;;;;;;25.33;38.68;99241.44;5046497;28;20049;-67
2022/07/29 11:26:15;;;;;;;3.35;1.40;;;;;;;25.41;37.91;99256.00;5049308;28;20041;-67
2022/07/29 11:28:55;;;;;;;1.83;1.05;;;;;;;25.14;36.82;99245.47;5050939;28;20052;-66
2022/07/29 11:31:43;;;;;;;1.20;0.90;;;;;;;24.98;38.74;99241.84;5051160;28;20040;-66
2022/07/29 11:34:29;;;;;;;2.28;1.20;;;;;;;25.17;38.66;99233.16;5050703;28;20037;-66
2022/07/29 11:37:13;;;;;;;1.30;1.20;;;;;;;25.30;38.78;99239.41;5046524;28;20394;-64
2022/07/29 11:39:43;;;;;;;2.75;1.30;;;;;;;25.30;38.01;99240.19;5050783;28;20056;-66
2022/07/29 11:42:24;;;;;;;1.35;1.17;;;;;;;25.17;38.05;99252.16;5062932;28;20045;-63
2022/07/29 11:45:09;;;;;;;4.28;1.40;;;;;;;25.10;38.53;99262.75;5038613;28;20048;-64
2022/07/29 11:47:47;;;;;;;1.42;1.27;;;;;;;24.70;38.03;99260.63;5050098;28;20049;-63